sensor_id;sensor_type;location;lat;lon;timestamp;P1;durP1;ratioP1;P2;durP2;ratioP2
74473;SDS011;62922;-6.168;106.796;2022-08-19T00:00:36;65.60;;;24.20;;
74473;SDS011;62922;-6.168;106.796;2022-08-19T00:03:04;64.03;;;23.95;;
74473;SDS011;62922;-6.168;106.796;2022-08-19T00:05:32;59.42;;;24.20;;
74473;SDS011;62922;-6.168;106.796;2022-08-19T00:07:58;59.95;;;24.77;;
74473;SDS011;62922;-6.168;106.796;2022-08-19T00:10:24;61.35;;;24.90;;
74473;SDS011;62922;-6.168;106.796;2022-08-19T00:12:51;61.70;;;24.45;;
74473;SDS011;62922;-6.168;106.796;2022-08-19T00:15:18;58.65;;;24.70;;
74473;SDS011;62922;-6.168;106.796;2022-08-19T00:17:47;62.80;;;24.63;;
74473;SDS011;62922;-6.168;106.796;2022-08-19T00:20:16;57.13;;;25.80;;
74473;SDS011;62922;-6.168;106.796;2022-08-19T00:22:45;67.35;;;27.23;;
74473;SDS011;62922;-6.168;106.796;2022-08-19T00:25:12;68.97;;;28.75;;
74473;SDS011;62922;-6.168;106.796;2022-08-19T00:27:39;54.63;;;25.58;;
74473;SDS011;62922;-6.168;106.796;2022-08-19T00:30:06;55.75;;;25.08;;
74473;SDS011;62922;-6.168;106.796;2022-08-19T00:32:34;55.63;;;24.65;;
74473;SDS011;62922;-6.168;106.796;2022-08-19T00:35:03;60.03;;;25.83;;
74473;SDS011;62922;-6.168;106.796;2022-08-19T00:37:30;52.88;;;25.02;;
74473;SDS011;62922;-6.168;106.796;2022-08-19T00:39:56;57.47;;;25.15;;
74473;SDS011;62922;-6.168;106.796;2022-08-19T00:42:22;46.40;;;24.42;;
74473;SDS011;62922;-6.168;106.796;2022-08-19T00:44:49;54.50;;;23.30;;
74473;SDS011;62922;-6.168;106.796;2022-08-19T00:47:15;64.38;;;26.10;;
74473;SDS011;62922;-6.168;106.796;2022-08-19T00:49:44;54.13;;;23.83;;
74473;SDS011;62922;-6.168;106.796;2022-08-19T00:52:18;55.78;;;24.02;;
74473;SDS011;62922;-6.168;106.796;2022-08-19T00:54:50;57.65;;;25.65;;
74473;SDS011;62922;-6.168;106.796;2022-08-19T00:57:20;60.45;;;24.48;;
74473;SDS011;62922;-6.168;106.796;2022-08-19T00:59:52;60.47;;;26.45;;
74473;SDS011;62922;-6.168;106.796;2022-08-19T01:02:21;53.70;;;25.65;;
74473;SDS011;62922;-6.168;106.796;2022-08-19T01:04:49;60.72;;;26.35;;
74473;SDS011;62922;-6.168;106.796;2022-08-19T01:07:16;60.05;;;26.25;;
74473;SDS011;62922;-6.168;106.796;2022-08-19T01:09:43;56.35;;;25.55;;
74473;SDS011;62922;-6.168;106.796;2022-08-19T01:12:09;55.42;;;25.83;;
74473;SDS011;62922;-6.168;106.796;2022-08-19T01:14:36;48.55;;;23.92;;
74473;SDS011;62922;-6.168;106.796;2022-08-19T01:17:09;56.85;;;26.27;;
74473;SDS011;62922;-6.168;106.796;2022-08-19T01:19:39;56.08;;;25.58;;
74473;SDS011;62922;-6.168;106.796;2022-08-19T01:22:32;50.95;;;25.08;;
74473;SDS011;62922;-6.168;106.796;2022-08-19T01:24:58;54.40;;;25.70;;
74473;SDS011;62922;-6.168;106.796;2022-08-19T01:27:25;58.55;;;24.35;;
74473;SDS011;62922;-6.168;106.796;2022-08-19T01:30:02;59.92;;;23.70;;
74473;SDS011;62922;-6.168;106.796;2022-08-19T01:32:29;45.38;;;21.75;;
74473;SDS011;62922;-6.168;106.796;2022-08-19T01:34:55;50.83;;;24.35;;
74473;SDS011;62922;-6.168;106.796;2022-08-19T01:37:24;49.88;;;23.13;;
74473;SDS011;62922;-6.168;106.796;2022-08-19T01:39:51;51.05;;;23.85;;
74473;SDS011;62922;-6.168;106.796;2022-08-19T01:42:20;56.72;;;22.38;;
74473;SDS011;62922;-6.168;106.796;2022-08-19T01:44:47;47.08;;;21.48;;
74473;SDS011;62922;-6.168;106.796;2022-08-19T01:47:14;49.05;;;21.63;;
74473;SDS011;62922;-6.168;106.796;2022-08-19T01:49:40;49.00;;;21.23;;
74473;SDS011;62922;-6.168;106.796;2022-08-19T01:52:07;48.30;;;20.25;;
74473;SDS011;62922;-6.168;106.796;2022-08-19T01:54:33;50.80;;;21.08;;
74473;SDS011;62922;-6.168;106.796;2022-08-19T01:57:03;51.83;;;21.80;;
74473;SDS011;62922;-6.168;106.796;2022-08-19T01:59:34;49.78;;;21.25;;
74473;SDS011;62922;-6.168;106.796;2022-08-19T02:02:02;48.67;;;20.88;;
74473;SDS011;62922;-6.168;106.796;2022-08-19T02:04:32;49.22;;;22.55;;
74473;SDS011;62922;-6.168;106.796;2022-08-19T02:07:02;50.92;;;22.35;;
74473;SDS011;62922;-6.168;106.796;2022-08-19T02:09:28;50.28;;;22.55;;
74473;SDS011;62922;-6.168;106.796;2022-08-19T02:11:57;54.70;;;23.45;;
74473;SDS011;62922;-6.168;106.796;2022-08-19T02:14:24;51.10;;;21.80;;
74473;SDS011;62922;-6.168;106.796;2022-08-19T02:16:50;51.63;;;22.10;;
74473;SDS011;62922;-6.168;106.796;2022-08-19T02:19:16;47.65;;;21.52;;
74473;SDS011;62922;-6.168;106.796;2022-08-19T02:21:42;50.53;;;22.02;;
74473;SDS011;62922;-6.168;106.796;2022-08-19T02:24:09;52.05;;;24.30;;
74473;SDS011;62922;-6.168;106.796;2022-08-19T02:26:36;49.85;;;23.40;;
74473;SDS011;62922;-6.168;106.796;2022-08-19T02:29:03;75.97;;;24.60;;
74473;SDS011;62922;-6.168;106.796;2022-08-19T02:31:29;50.10;;;21.73;;
74473;SDS011;62922;-6.168;106.796;2022-08-19T02:33:56;50.22;;;20.60;;
74473;SDS011;62922;-6.168;106.796;2022-08-19T02:36:23;56.78;;;21.90;;
74473;SDS011;62922;-6.168;106.796;2022-08-19T02:38:50;55.85;;;22.08;;
74473;SDS011;62922;-6.168;106.796;2022-08-19T02:41:19;43.45;;;20.00;;
74473;SDS011;62922;-6.168;106.796;2022-08-19T02:43:48;43.40;;;19.67;;
74473;SDS011;62922;-6.168;106.796;2022-08-19T02:46:16;46.50;;;19.60;;
74473;SDS011;62922;-6.168;106.796;2022-08-19T02:48:49;48.30;;;20.15;;
74473;SDS011;62922;-6.168;106.796;2022-08-19T02:51:18;45.88;;;18.45;;
74473;SDS011;62922;-6.168;106.796;2022-08-19T02:53:54;59.88;;;17.88;;
74473;SDS011;62922;-6.168;106.796;2022-08-19T02:56:20;48.33;;;18.42;;
74473;SDS011;62922;-6.168;106.796;2022-08-19T02:58:47;49.95;;;17.73;;
74473;SDS011;62922;-6.168;106.796;2022-08-19T03:01:20;59.08;;;19.13;;
74473;SDS011;62922;-6.168;106.796;2022-08-19T03:03:59;44.30;;;17.02;;
74473;SDS011;62922;-6.168;106.796;2022-08-19T03:06:27;54.03;;;17.77;;
74473;SDS011;62922;-6.168;106.796;2022-08-19T03:08:54;44.13;;;17.08;;
74473;SDS011;62922;-6.168;106.796;2022-08-19T03:11:23;42.88;;;16.98;;
74473;SDS011;62922;-6.168;106.796;2022-08-19T03:13:50;43.65;;;16.35;;
74473;SDS011;62922;-6.168;106.796;2022-08-19T03:16:20;53.20;;;17.88;;
74473;SDS011;62922;-6.168;106.796;2022-08-19T03:18:49;46.10;;;17.58;;
74473;SDS011;62922;-6.168;106.796;2022-08-19T03:21:22;50.10;;;18.00;;
74473;SDS011;62922;-6.168;106.796;2022-08-19T03:23:53;49.45;;;18.38;;
74473;SDS011;62922;-6.168;106.796;2022-08-19T03:26:20;44.67;;;18.35;;
74473;SDS011;62922;-6.168;106.796;2022-08-19T03:28:47;48.20;;;17.75;;
74473;SDS011;62922;-6.168;106.796;2022-08-19T03:31:15;49.65;;;18.70;;
74473;SDS011;62922;-6.168;106.796;2022-08-19T03:33:44;44.00;;;17.80;;
74473;SDS011;62922;-6.168;106.796;2022-08-19T03:36:13;45.70;;;18.42;;
74473;SDS011;62922;-6.168;106.796;2022-08-19T03:38:43;51.67;;;19.10;;
74473;SDS011;62922;-6.168;106.796;2022-08-19T03:41:17;51.92;;;17.40;;
74473;SDS011;62922;-6.168;106.796;2022-08-19T03:43:45;52.08;;;17.60;;
74473;SDS011;62922;-6.168;106.796;2022-08-19T03:46:13;49.65;;;17.70;;
74473;SDS011;62922;-6.168;106.796;2022-08-19T03:48:42;43.75;;;17.25;;
74473;SDS011;62922;-6.168;106.796;2022-08-19T03:51:32;49.55;;;17.30;;
74473;SDS011;62922;-6.168;106.796;2022-08-19T03:53:58;51.60;;;17.30;;
74473;SDS011;62922;-6.168;106.796;2022-08-19T03:56:26;51.70;;;17.30;;
74473;SDS011;62922;-6.168;106.796;2022-08-19T03:58:55;51.05;;;17.23;;
74473;SDS011;62922;-6.168;106.796;2022-08-19T04:01:23;48.00;;;16.92;;
74473;SDS011;62922;-6.168;106.796;2022-08-19T04:03:52;48.42;;;17.10;;
74473;SDS011;62922;-6.168;106.796;2022-08-19T04:06:20;48.58;;;16.55;;
74473;SDS011;62922;-6.168;106.796;2022-08-19T04:08:57;52.65;;;16.77;;
74473;SDS011;62922;-6.168;106.796;2022-08-19T04:11:25;48.80;;;16.88;;
74473;SDS011;62922;-6.168;106.796;2022-08-19T04:14:13;49.83;;;16.70;;
74473;SDS011;62922;-6.168;106.796;2022-08-19T04:16:46;45.80;;;15.73;;
74473;SDS011;62922;-6.168;106.796;2022-08-19T04:19:14;43.35;;;15.90;;
74473;SDS011;62922;-6.168;106.796;2022-08-19T04:21:43;47.47;;;16.35;;
74473;SDS011;62922;-6.168;106.796;2022-08-19T04:24:14;46.80;;;15.85;;
74473;SDS011;62922;-6.168;106.796;2022-08-19T04:26:43;56.20;;;17.00;;
74473;SDS011;62922;-6.168;106.796;2022-08-19T04:29:15;51.78;;;16.17;;
74473;SDS011;62922;-6.168;106.796;2022-08-19T04:31:44;53.35;;;15.50;;
74473;SDS011;62922;-6.168;106.796;2022-08-19T04:34:14;52.53;;;15.65;;
74473;SDS011;62922;-6.168;106.796;2022-08-19T04:36:42;75.93;;;17.15;;
74473;SDS011;62922;-6.168;106.796;2022-08-19T04:39:14;45.47;;;15.50;;
74473;SDS011;62922;-6.168;106.796;2022-08-19T04:41:41;49.50;;;15.75;;
74473;SDS011;62922;-6.168;106.796;2022-08-19T04:44:29;45.50;;;15.60;;
74473;SDS011;62922;-6.168;106.796;2022-08-19T04:46:57;51.10;;;15.60;;
74473;SDS011;62922;-6.168;106.796;2022-08-19T04:49:24;38.15;;;14.85;;
74473;SDS011;62922;-6.168;106.796;2022-08-19T04:51:51;46.55;;;15.38;;
74473;SDS011;62922;-6.168;106.796;2022-08-19T04:54:19;45.20;;;15.10;;
74473;SDS011;62922;-6.168;106.796;2022-08-19T04:56:48;44.83;;;14.13;;
74473;SDS011;62922;-6.168;106.796;2022-08-19T04:59:15;39.58;;;14.35;;
74473;SDS011;62922;-6.168;106.796;2022-08-19T05:01:43;44.85;;;15.85;;
74473;SDS011;62922;-6.168;106.796;2022-08-19T05:04:13;42.50;;;15.05;;
74473;SDS011;62922;-6.168;106.796;2022-08-19T05:06:43;63.20;;;16.80;;
74473;SDS011;62922;-6.168;106.796;2022-08-19T05:09:09;49.63;;;14.82;;
74473;SDS011;62922;-6.168;106.796;2022-08-19T05:11:36;43.30;;;14.68;;
74473;SDS011;62922;-6.168;106.796;2022-08-19T05:14:04;40.50;;;14.90;;
74473;SDS011;62922;-6.168;106.796;2022-08-19T05:16:32;61.67;;;15.85;;
74473;SDS011;62922;-6.168;106.796;2022-08-19T05:18:58;46.22;;;14.73;;
74473;SDS011;62922;-6.168;106.796;2022-08-19T05:21:27;50.10;;;15.02;;
74473;SDS011;62922;-6.168;106.796;2022-08-19T05:24:03;44.55;;;14.82;;
74473;SDS011;62922;-6.168;106.796;2022-08-19T05:26:35;38.22;;;14.10;;
74473;SDS011;62922;-6.168;106.796;2022-08-19T05:29:03;46.38;;;15.45;;
74473;SDS011;62922;-6.168;106.796;2022-08-19T05:31:34;53.75;;;19.17;;
74473;SDS011;62922;-6.168;106.796;2022-08-19T05:34:04;59.63;;;23.23;;
74473;SDS011;62922;-6.168;106.796;2022-08-19T05:36:35;58.40;;;21.40;;
74473;SDS011;62922;-6.168;106.796;2022-08-19T05:39:06;51.65;;;21.67;;
74473;SDS011;62922;-6.168;106.796;2022-08-19T05:41:34;49.42;;;20.23;;
74473;SDS011;62922;-6.168;106.796;2022-08-19T05:44:01;50.63;;;19.92;;
74473;SDS011;62922;-6.168;106.796;2022-08-19T05:46:32;54.40;;;18.40;;
74473;SDS011;62922;-6.168;106.796;2022-08-19T05:48:58;47.05;;;16.83;;
74473;SDS011;62922;-6.168;106.796;2022-08-19T05:51:25;39.22;;;14.65;;
74473;SDS011;62922;-6.168;106.796;2022-08-19T05:53:52;39.78;;;13.32;;
74473;SDS011;62922;-6.168;106.796;2022-08-19T05:56:18;43.88;;;14.88;;
74473;SDS011;62922;-6.168;106.796;2022-08-19T05:58:45;34.38;;;12.90;;
74473;SDS011;62922;-6.168;106.796;2022-08-19T06:01:16;43.92;;;14.05;;
74473;SDS011;62922;-6.168;106.796;2022-08-19T06:03:44;36.97;;;12.82;;
74473;SDS011;62922;-6.168;106.796;2022-08-19T06:06:11;44.13;;;12.32;;
74473;SDS011;62922;-6.168;106.796;2022-08-19T06:08:39;40.53;;;13.05;;
74473;SDS011;62922;-6.168;106.796;2022-08-19T06:13:43;37.60;;;12.65;;
74473;SDS011;62922;-6.168;106.796;2022-08-19T06:16:13;34.42;;;11.95;;
74473;SDS011;62922;-6.168;106.796;2022-08-19T06:18:51;39.00;;;11.45;;
74473;SDS011;62922;-6.168;106.796;2022-08-19T06:21:19;40.47;;;11.98;;
74473;SDS011;62922;-6.168;106.796;2022-08-19T06:23:49;31.10;;;11.00;;
74473;SDS011;62922;-6.168;106.796;2022-08-19T06:26:17;31.08;;;10.77;;
74473;SDS011;62922;-6.168;106.796;2022-08-19T06:28:45;37.72;;;12.05;;
74473;SDS011;62922;-6.168;106.796;2022-08-19T06:31:17;35.38;;;11.25;;
74473;SDS011;62922;-6.168;106.796;2022-08-19T06:33:48;39.58;;;11.10;;
74473;SDS011;62922;-6.168;106.796;2022-08-19T06:38:43;40.05;;;11.38;;
74473;SDS011;62922;-6.168;106.796;2022-08-19T06:41:10;33.10;;;11.00;;
74473;SDS011;62922;-6.168;106.796;2022-08-19T06:43:36;34.08;;;10.43;;
74473;SDS011;62922;-6.168;106.796;2022-08-19T06:46:03;45.72;;;11.48;;
74473;SDS011;62922;-6.168;106.796;2022-08-19T06:48:30;34.40;;;10.68;;
74473;SDS011;62922;-6.168;106.796;2022-08-19T06:50:57;34.22;;;10.63;;
74473;SDS011;62922;-6.168;106.796;2022-08-19T06:53:23;38.28;;;11.15;;
74473;SDS011;62922;-6.168;106.796;2022-08-19T06:55:49;41.25;;;11.63;;
74473;SDS011;62922;-6.168;106.796;2022-08-19T06:58:25;42.83;;;12.23;;
74473;SDS011;62922;-6.168;106.796;2022-08-19T07:00:52;38.05;;;11.82;;
74473;SDS011;62922;-6.168;106.796;2022-08-19T07:03:18;47.17;;;12.77;;
74473;SDS011;62922;-6.168;106.796;2022-08-19T07:05:44;44.95;;;12.07;;
74473;SDS011;62922;-6.168;106.796;2022-08-19T07:08:11;38.33;;;11.52;;
74473;SDS011;62922;-6.168;106.796;2022-08-19T07:10:41;44.70;;;12.55;;
74473;SDS011;62922;-6.168;106.796;2022-08-19T07:13:09;49.85;;;12.55;;
74473;SDS011;62922;-6.168;106.796;2022-08-19T07:15:36;40.88;;;11.65;;
74473;SDS011;62922;-6.168;106.796;2022-08-19T07:18:03;35.35;;;11.27;;
74473;SDS011;62922;-6.168;106.796;2022-08-19T07:20:32;35.65;;;11.25;;
74473;SDS011;62922;-6.168;106.796;2022-08-19T07:22:58;33.00;;;11.10;;
74473;SDS011;62922;-6.168;106.796;2022-08-19T07:25:24;39.63;;;11.57;;
74473;SDS011;62922;-6.168;106.796;2022-08-19T07:27:51;47.00;;;12.27;;
74473;SDS011;62922;-6.168;106.796;2022-08-19T07:30:17;41.60;;;11.52;;
74473;SDS011;62922;-6.168;106.796;2022-08-19T07:32:43;36.78;;;11.50;;
74473;SDS011;62922;-6.168;106.796;2022-08-19T07:35:10;34.03;;;11.32;;
74473;SDS011;62922;-6.168;106.796;2022-08-19T07:37:36;43.70;;;11.88;;
74473;SDS011;62922;-6.168;106.796;2022-08-19T07:40:04;36.08;;;11.10;;
74473;SDS011;62922;-6.168;106.796;2022-08-19T07:42:32;38.10;;;10.48;;
74473;SDS011;62922;-6.168;106.796;2022-08-19T07:44:58;45.30;;;11.57;;
74473;SDS011;62922;-6.168;106.796;2022-08-19T07:47:25;39.60;;;11.05;;
74473;SDS011;62922;-6.168;106.796;2022-08-19T07:49:55;32.53;;;10.38;;
74473;SDS011;62922;-6.168;106.796;2022-08-19T07:52:22;36.13;;;10.93;;
74473;SDS011;62922;-6.168;106.796;2022-08-19T07:54:48;39.17;;;11.95;;
74473;SDS011;62922;-6.168;106.796;2022-08-19T07:57:15;41.47;;;13.15;;
74473;SDS011;62922;-6.168;106.796;2022-08-19T07:59:44;37.55;;;12.23;;
74473;SDS011;62922;-6.168;106.796;2022-08-19T08:02:11;46.97;;;12.23;;
74473;SDS011;62922;-6.168;106.796;2022-08-19T08:04:37;31.25;;;11.32;;
74473;SDS011;62922;-6.168;106.796;2022-08-19T08:07:23;34.40;;;10.20;;
74473;SDS011;62922;-6.168;106.796;2022-08-19T08:09:58;32.72;;;10.25;;
74473;SDS011;62922;-6.168;106.796;2022-08-19T08:12:28;37.17;;;10.45;;
74473;SDS011;62922;-6.168;106.796;2022-08-19T08:14:59;43.35;;;13.23;;
74473;SDS011;62922;-6.168;106.796;2022-08-19T08:17:27;36.78;;;12.50;;
74473;SDS011;62922;-6.168;106.796;2022-08-19T08:19:59;38.28;;;11.95;;
74473;SDS011;62922;-6.168;106.796;2022-08-19T08:22:25;38.42;;;11.93;;
74473;SDS011;62922;-6.168;106.796;2022-08-19T08:25:13;34.83;;;11.48;;
74473;SDS011;62922;-6.168;106.796;2022-08-19T08:27:44;39.25;;;11.77;;
74473;SDS011;62922;-6.168;106.796;2022-08-19T08:30:13;34.38;;;11.18;;
74473;SDS011;62922;-6.168;106.796;2022-08-19T08:32:41;35.15;;;12.30;;
74473;SDS011;62922;-6.168;106.796;2022-08-19T08:35:09;35.55;;;12.63;;
74473;SDS011;62922;-6.168;106.796;2022-08-19T08:37:42;43.60;;;14.85;;
74473;SDS011;62922;-6.168;106.796;2022-08-19T08:40:19;43.05;;;12.63;;
74473;SDS011;62922;-6.168;106.796;2022-08-19T08:42:55;44.17;;;13.05;;
74473;SDS011;62922;-6.168;106.796;2022-08-19T08:45:30;38.75;;;12.52;;
74473;SDS011;62922;-6.168;106.796;2022-08-19T08:47:58;40.08;;;12.43;;
74473;SDS011;62922;-6.168;106.796;2022-08-19T08:50:32;41.97;;;13.60;;
74473;SDS011;62922;-6.168;106.796;2022-08-19T08:53:04;33.05;;;12.40;;
74473;SDS011;62922;-6.168;106.796;2022-08-19T08:55:33;39.13;;;13.00;;
74473;SDS011;62922;-6.168;106.796;2022-08-19T08:58:05;35.95;;;12.75;;
74473;SDS011;62922;-6.168;106.796;2022-08-19T09:00:40;32.85;;;11.93;;
74473;SDS011;62922;-6.168;106.796;2022-08-19T09:03:23;42.45;;;12.38;;
74473;SDS011;62922;-6.168;106.796;2022-08-19T09:06:03;37.03;;;12.25;;
74473;SDS011;62922;-6.168;106.796;2022-08-19T09:08:38;32.70;;;11.57;;
74473;SDS011;62922;-6.168;106.796;2022-08-19T09:11:07;37.22;;;11.73;;
74473;SDS011;62922;-6.168;106.796;2022-08-19T09:16:18;37.90;;;13.40;;
74473;SDS011;62922;-6.168;106.796;2022-08-19T09:18:48;38.83;;;13.95;;
74473;SDS011;62922;-6.168;106.796;2022-08-19T09:21:21;36.00;;;14.10;;
74473;SDS011;62922;-6.168;106.796;2022-08-19T09:23:49;42.47;;;14.02;;
74473;SDS011;62922;-6.168;106.796;2022-08-19T09:26:16;40.75;;;14.30;;
74473;SDS011;62922;-6.168;106.796;2022-08-19T09:28:46;35.80;;;13.15;;
74473;SDS011;62922;-6.168;106.796;2022-08-19T09:31:16;35.05;;;12.73;;
74473;SDS011;62922;-6.168;106.796;2022-08-19T09:33:48;42.80;;;12.43;;
74473;SDS011;62922;-6.168;106.796;2022-08-19T09:36:17;37.17;;;12.43;;
74473;SDS011;62922;-6.168;106.796;2022-08-19T09:38:45;46.05;;;14.10;;
74473;SDS011;62922;-6.168;106.796;2022-08-19T09:41:13;44.97;;;14.57;;
74473;SDS011;62922;-6.168;106.796;2022-08-19T09:43:43;40.88;;;14.10;;
74473;SDS011;62922;-6.168;106.796;2022-08-19T09:46:11;45.85;;;13.85;;
74473;SDS011;62922;-6.168;106.796;2022-08-19T09:48:44;46.05;;;13.88;;
74473;SDS011;62922;-6.168;106.796;2022-08-19T09:51:14;52.85;;;13.55;;
74473;SDS011;62922;-6.168;106.796;2022-08-19T09:56:15;46.78;;;13.63;;
74473;SDS011;62922;-6.168;106.796;2022-08-19T09:58:42;38.72;;;13.32;;
74473;SDS011;62922;-6.168;106.796;2022-08-19T10:01:08;36.72;;;13.60;;
74473;SDS011;62922;-6.168;106.796;2022-08-19T10:03:35;46.75;;;14.38;;
74473;SDS011;62922;-6.168;106.796;2022-08-19T10:06:05;49.95;;;13.82;;
74473;SDS011;62922;-6.168;106.796;2022-08-19T10:08:33;45.15;;;13.73;;
74473;SDS011;62922;-6.168;106.796;2022-08-19T10:11:05;50.13;;;13.75;;
74473;SDS011;62922;-6.168;106.796;2022-08-19T10:13:32;51.88;;;13.82;;
74473;SDS011;62922;-6.168;106.796;2022-08-19T10:16:07;41.80;;;13.18;;
74473;SDS011;62922;-6.168;106.796;2022-08-19T10:18:35;54.60;;;14.23;;
74473;SDS011;62922;-6.168;106.796;2022-08-19T10:21:07;42.58;;;12.48;;
74473;SDS011;62922;-6.168;106.796;2022-08-19T10:23:38;49.33;;;13.68;;
74473;SDS011;62922;-6.168;106.796;2022-08-19T10:26:12;44.88;;;13.30;;
74473;SDS011;62922;-6.168;106.796;2022-08-19T10:28:40;42.28;;;12.27;;
74473;SDS011;62922;-6.168;106.796;2022-08-19T10:31:09;44.50;;;12.45;;
74473;SDS011;62922;-6.168;106.796;2022-08-19T10:33:38;43.72;;;12.98;;
74473;SDS011;62922;-6.168;106.796;2022-08-19T10:36:07;37.50;;;12.38;;
74473;SDS011;62922;-6.168;106.796;2022-08-19T10:38:40;42.20;;;12.15;;
74473;SDS011;62922;-6.168;106.796;2022-08-19T10:41:11;50.63;;;12.45;;
74473;SDS011;62922;-6.168;106.796;2022-08-19T10:43:40;43.10;;;12.43;;
74473;SDS011;62922;-6.168;106.796;2022-08-19T10:46:08;43.55;;;12.57;;
74473;SDS011;62922;-6.168;106.796;2022-08-19T10:48:36;49.15;;;12.95;;
74473;SDS011;62922;-6.168;106.796;2022-08-19T10:51:02;48.28;;;12.77;;
74473;SDS011;62922;-6.168;106.796;2022-08-19T10:53:49;44.25;;;12.63;;
74473;SDS011;62922;-6.168;106.796;2022-08-19T10:56:16;35.75;;;11.40;;
74473;SDS011;62922;-6.168;106.796;2022-08-19T10:58:52;36.85;;;11.20;;
74473;SDS011;62922;-6.168;106.796;2022-08-19T11:01:18;37.75;;;12.07;;
74473;SDS011;62922;-6.168;106.796;2022-08-19T11:03:45;41.33;;;12.93;;
74473;SDS011;62922;-6.168;106.796;2022-08-19T11:06:11;45.53;;;12.50;;
74473;SDS011;62922;-6.168;106.796;2022-08-19T11:08:41;48.25;;;13.13;;
74473;SDS011;62922;-6.168;106.796;2022-08-19T11:11:10;42.45;;;13.35;;
74473;SDS011;62922;-6.168;106.796;2022-08-19T11:13:37;45.72;;;12.23;;
74473;SDS011;62922;-6.168;106.796;2022-08-19T11:16:10;48.35;;;14.27;;
74473;SDS011;62922;-6.168;106.796;2022-08-19T11:18:43;48.58;;;13.43;;
74473;SDS011;62922;-6.168;106.796;2022-08-19T11:21:14;44.15;;;13.40;;
74473;SDS011;62922;-6.168;106.796;2022-08-19T11:23:52;50.60;;;14.02;;
74473;SDS011;62922;-6.168;106.796;2022-08-19T11:26:24;40.75;;;12.95;;
74473;SDS011;62922;-6.168;106.796;2022-08-19T11:28:50;51.78;;;13.85;;
74473;SDS011;62922;-6.168;106.796;2022-08-19T11:31:21;39.80;;;13.02;;
74473;SDS011;62922;-6.168;106.796;2022-08-19T11:33:50;52.25;;;15.02;;
74473;SDS011;62922;-6.168;106.796;2022-08-19T11:36:19;43.08;;;13.98;;
74473;SDS011;62922;-6.168;106.796;2022-08-19T11:38:48;50.85;;;15.20;;
74473;SDS011;62922;-6.168;106.796;2022-08-19T11:41:17;43.35;;;14.85;;
74473;SDS011;62922;-6.168;106.796;2022-08-19T11:43:45;48.10;;;14.32;;
74473;SDS011;62922;-6.168;106.796;2022-08-19T11:46:13;50.15;;;14.73;;
74473;SDS011;62922;-6.168;106.796;2022-08-19T11:48:40;44.92;;;14.30;;
74473;SDS011;62922;-6.168;106.796;2022-08-19T11:51:11;37.38;;;14.35;;
74473;SDS011;62922;-6.168;106.796;2022-08-19T11:53:39;51.83;;;15.23;;
74473;SDS011;62922;-6.168;106.796;2022-08-19T11:56:06;50.05;;;16.63;;
74473;SDS011;62922;-6.168;106.796;2022-08-19T11:58:33;49.30;;;15.75;;
74473;SDS011;62922;-6.168;106.796;2022-08-19T12:01:00;46.80;;;17.20;;
74473;SDS011;62922;-6.168;106.796;2022-08-19T12:03:30;50.42;;;16.58;;
74473;SDS011;62922;-6.168;106.796;2022-08-19T12:05:56;53.53;;;16.65;;
74473;SDS011;62922;-6.168;106.796;2022-08-19T12:08:22;50.65;;;17.70;;
74473;SDS011;62922;-6.168;106.796;2022-08-19T12:10:49;51.72;;;17.27;;
74473;SDS011;62922;-6.168;106.796;2022-08-19T12:13:15;51.17;;;15.98;;
74473;SDS011;62922;-6.168;106.796;2022-08-19T12:15:44;51.03;;;15.85;;
74473;SDS011;62922;-6.168;106.796;2022-08-19T12:18:15;42.58;;;15.23;;
74473;SDS011;62922;-6.168;106.796;2022-08-19T12:20:41;48.42;;;16.58;;
74473;SDS011;62922;-6.168;106.796;2022-08-19T12:23:09;50.20;;;17.90;;
74473;SDS011;62922;-6.168;106.796;2022-08-19T12:25:37;68.25;;;25.88;;
74473;SDS011;62922;-6.168;106.796;2022-08-19T12:28:18;54.22;;;25.77;;
74473;SDS011;62922;-6.168;106.796;2022-08-19T12:30:46;60.08;;;29.65;;
74473;SDS011;62922;-6.168;106.796;2022-08-19T12:33:13;66.47;;;30.58;;
74473;SDS011;62922;-6.168;106.796;2022-08-19T12:35:41;70.82;;;32.35;;
74473;SDS011;62922;-6.168;106.796;2022-08-19T12:38:09;64.32;;;27.73;;
74473;SDS011;62922;-6.168;106.796;2022-08-19T12:40:37;64.57;;;23.30;;
74473;SDS011;62922;-6.168;106.796;2022-08-19T12:43:05;60.25;;;22.48;;
74473;SDS011;62922;-6.168;106.796;2022-08-19T12:45:33;55.83;;;20.45;;
74473;SDS011;62922;-6.168;106.796;2022-08-19T12:47:59;42.50;;;20.02;;
74473;SDS011;62922;-6.168;106.796;2022-08-19T12:50:26;50.05;;;19.17;;
74473;SDS011;62922;-6.168;106.796;2022-08-19T12:52:53;47.65;;;19.15;;
74473;SDS011;62922;-6.168;106.796;2022-08-19T12:55:19;55.90;;;18.17;;
74473;SDS011;62922;-6.168;106.796;2022-08-19T12:57:46;53.90;;;17.98;;
74473;SDS011;62922;-6.168;106.796;2022-08-19T13:00:15;55.47;;;18.80;;
74473;SDS011;62922;-6.168;106.796;2022-08-19T13:02:47;49.03;;;17.73;;
74473;SDS011;62922;-6.168;106.796;2022-08-19T13:05:16;49.30;;;17.95;;
74473;SDS011;62922;-6.168;106.796;2022-08-19T13:07:48;56.28;;;19.00;;
74473;SDS011;62922;-6.168;106.796;2022-08-19T13:10:18;59.15;;;19.95;;
74473;SDS011;62922;-6.168;106.796;2022-08-19T13:12:47;58.78;;;19.95;;
74473;SDS011;62922;-6.168;106.796;2022-08-19T13:15:15;50.20;;;18.63;;
74473;SDS011;62922;-6.168;106.796;2022-08-19T13:17:48;51.35;;;18.08;;
74473;SDS011;62922;-6.168;106.796;2022-08-19T13:20:17;56.03;;;18.08;;
74473;SDS011;62922;-6.168;106.796;2022-08-19T13:22:45;49.25;;;17.30;;
74473;SDS011;62922;-6.168;106.796;2022-08-19T13:25:13;47.00;;;17.80;;
74473;SDS011;62922;-6.168;106.796;2022-08-19T13:27:44;48.88;;;18.38;;
74473;SDS011;62922;-6.168;106.796;2022-08-19T13:30:12;46.58;;;17.95;;
74473;SDS011;62922;-6.168;106.796;2022-08-19T13:32:50;54.45;;;19.25;;
74473;SDS011;62922;-6.168;106.796;2022-08-19T13:35:37;51.03;;;18.52;;
74473;SDS011;62922;-6.168;106.796;2022-08-19T13:38:03;47.60;;;18.58;;
74473;SDS011;62922;-6.168;106.796;2022-08-19T13:40:30;53.67;;;19.52;;
74473;SDS011;62922;-6.168;106.796;2022-08-19T13:42:59;51.05;;;19.45;;
74473;SDS011;62922;-6.168;106.796;2022-08-19T13:45:27;58.08;;;19.48;;
74473;SDS011;62922;-6.168;106.796;2022-08-19T13:47:55;50.83;;;19.77;;
74473;SDS011;62922;-6.168;106.796;2022-08-19T13:50:24;49.38;;;19.73;;
74473;SDS011;62922;-6.168;106.796;2022-08-19T13:52:56;59.50;;;20.42;;
74473;SDS011;62922;-6.168;106.796;2022-08-19T13:55:24;55.30;;;19.50;;
74473;SDS011;62922;-6.168;106.796;2022-08-19T13:57:51;54.53;;;19.80;;
74473;SDS011;62922;-6.168;106.796;2022-08-19T14:00:19;58.97;;;19.75;;
74473;SDS011;62922;-6.168;106.796;2022-08-19T14:02:47;45.17;;;18.42;;
74473;SDS011;62922;-6.168;106.796;2022-08-19T14:05:17;50.67;;;19.25;;
74473;SDS011;62922;-6.168;106.796;2022-08-19T14:07:45;55.92;;;19.40;;
74473;SDS011;62922;-6.168;106.796;2022-08-19T14:10:11;55.50;;;19.35;;
74473;SDS011;62922;-6.168;106.796;2022-08-19T14:12:39;52.42;;;18.45;;
74473;SDS011;62922;-6.168;106.796;2022-08-19T14:15:07;45.95;;;18.08;;
74473;SDS011;62922;-6.168;106.796;2022-08-19T14:17:37;47.70;;;18.50;;